sensor_id;sensor_type;location;lat;lon;timestamp;P1;durP1;ratioP1;P2;durP2;ratioP2
37831;SDS011;23671;38.090;-122.570;2022-08-21T00:01:13;5.25;;;3.13;;
37831;SDS011;23671;38.090;-122.570;2022-08-21T00:03:43;6.72;;;2.88;;
37831;SDS011;23671;38.090;-122.570;2022-08-21T00:06:11;5.10;;;3.30;;
37831;SDS011;23671;38.090;-122.570;2022-08-21T00:08:38;3.73;;;2.70;;
37831;SDS011;23671;38.090;-122.570;2022-08-21T00:11:06;5.83;;;3.30;;
37831;SDS011;23671;38.090;-122.570;2022-08-21T00:13:33;5.47;;;2.83;;
37831;SDS011;23671;38.090;-122.570;2022-08-21T00:16:00;4.10;;;2.63;;
37831;SDS011;23671;38.090;-122.570;2022-08-21T00:18:28;5.30;;;2.92;;
37831;SDS011;23671;38.090;-122.570;2022-08-21T00:20:55;4.22;;;2.90;;
37831;SDS011;23671;38.090;-122.570;2022-08-21T00:23:22;4.68;;;2.92;;
37831;SDS011;23671;38.090;-122.570;2022-08-21T00:25:49;5.53;;;2.97;;
37831;SDS011;23671;38.090;-122.570;2022-08-21T00:28:16;4.05;;;2.60;;
37831;SDS011;23671;38.090;-122.570;2022-08-21T00:30:44;6.57;;;3.23;;
37831;SDS011;23671;38.090;-122.570;2022-08-21T00:33:11;7.20;;;3.30;;
37831;SDS011;23671;38.090;-122.570;2022-08-21T00:35:40;5.87;;;3.03;;
37831;SDS011;23671;38.090;-122.570;2022-08-21T00:38:08;6.72;;;2.83;;
37831;SDS011;23671;38.090;-122.570;2022-08-21T00:40:37;4.95;;;2.92;;
37831;SDS011;23671;38.090;-122.570;2022-08-21T00:43:22;4.97;;;3.00;;
37831;SDS011;23671;38.090;-122.570;2022-08-21T00:45:53;5.32;;;3.10;;
37831;SDS011;23671;38.090;-122.570;2022-08-21T00:48:21;4.43;;;3.40;;
37831;SDS011;23671;38.090;-122.570;2022-08-21T00:53:35;4.93;;;2.60;;
37831;SDS011;23671;38.090;-122.570;2022-08-21T00:56:07;4.85;;;2.80;;
37831;SDS011;23671;38.090;-122.570;2022-08-21T00:58:36;4.32;;;2.67;;
37831;SDS011;23671;38.090;-122.570;2022-08-21T01:01:05;5.63;;;2.95;;
37831;SDS011;23671;38.090;-122.570;2022-08-21T01:06:02;4.90;;;2.80;;
37831;SDS011;23671;38.090;-122.570;2022-08-21T01:08:31;4.65;;;2.80;;
37831;SDS011;23671;38.090;-122.570;2022-08-21T01:10:59;3.85;;;2.97;;
37831;SDS011;23671;38.090;-122.570;2022-08-21T01:13:29;5.55;;;2.67;;
37831;SDS011;23671;38.090;-122.570;2022-08-21T01:15:59;4.88;;;2.65;;
37831;SDS011;23671;38.090;-122.570;2022-08-21T01:18:30;6.25;;;2.85;;
37831;SDS011;23671;38.090;-122.570;2022-08-21T01:23:37;3.95;;;2.53;;
37831;SDS011;23671;38.090;-122.570;2022-08-21T01:26:05;3.30;;;2.33;;
37831;SDS011;23671;38.090;-122.570;2022-08-21T01:28:34;4.45;;;2.88;;
37831;SDS011;23671;38.090;-122.570;2022-08-21T01:31:09;3.50;;;2.83;;
37831;SDS011;23671;38.090;-122.570;2022-08-21T01:33:39;6.63;;;2.95;;
37831;SDS011;23671;38.090;-122.570;2022-08-21T01:36:06;6.53;;;3.00;;
37831;SDS011;23671;38.090;-122.570;2022-08-21T01:38:33;5.50;;;2.45;;
37831;SDS011;23671;38.090;-122.570;2022-08-21T01:41:01;4.50;;;2.45;;
37831;SDS011;23671;38.090;-122.570;2022-08-21T01:43:28;5.47;;;3.05;;
37831;SDS011;23671;38.090;-122.570;2022-08-21T01:45:55;5.45;;;2.92;;
37831;SDS011;23671;38.090;-122.570;2022-08-21T01:48:22;4.30;;;2.80;;
37831;SDS011;23671;38.090;-122.570;2022-08-21T01:50:50;4.73;;;2.77;;
37831;SDS011;23671;38.090;-122.570;2022-08-21T01:53:17;5.30;;;2.90;;
37831;SDS011;23671;38.090;-122.570;2022-08-21T01:55:45;5.28;;;2.60;;
37831;SDS011;23671;38.090;-122.570;2022-08-21T01:58:12;4.60;;;2.60;;
37831;SDS011;23671;38.090;-122.570;2022-08-21T02:00:39;3.72;;;2.58;;
37831;SDS011;23671;38.090;-122.570;2022-08-21T02:03:07;3.90;;;2.55;;
37831;SDS011;23671;38.090;-122.570;2022-08-21T02:05:34;4.87;;;2.43;;
37831;SDS011;23671;38.090;-122.570;2022-08-21T02:08:01;3.75;;;2.30;;
37831;SDS011;23671;38.090;-122.570;2022-08-21T02:10:31;3.40;;;2.30;;
37831;SDS011;23671;38.090;-122.570;2022-08-21T02:13:01;4.05;;;2.38;;
37831;SDS011;23671;38.090;-122.570;2022-08-21T02:15:30;4.70;;;2.47;;
37831;SDS011;23671;38.090;-122.570;2022-08-21T02:17:59;4.20;;;2.35;;
37831;SDS011;23671;38.090;-122.570;2022-08-21T02:20:31;4.43;;;2.55;;
37831;SDS011;23671;38.090;-122.570;2022-08-21T02:23:01;4.30;;;2.70;;
37831;SDS011;23671;38.090;-122.570;2022-08-21T02:25:29;5.32;;;3.00;;
37831;SDS011;23671;38.090;-122.570;2022-08-21T02:27:57;3.72;;;2.53;;
37831;SDS011;23671;38.090;-122.570;2022-08-21T02:30:29;4.72;;;2.78;;
37831;SDS011;23671;38.090;-122.570;2022-08-21T02:32:59;4.28;;;2.80;;
37831;SDS011;23671;38.090;-122.570;2022-08-21T02:35:28;4.50;;;2.58;;
37831;SDS011;23671;38.090;-122.570;2022-08-21T02:37:56;4.75;;;2.58;;
37831;SDS011;23671;38.090;-122.570;2022-08-21T02:40:29;3.22;;;2.65;;
37831;SDS011;23671;38.090;-122.570;2022-08-21T02:43:00;4.43;;;2.53;;
37831;SDS011;23671;38.090;-122.570;2022-08-21T02:45:29;5.20;;;2.70;;
37831;SDS011;23671;38.090;-122.570;2022-08-21T02:48:04;4.83;;;2.80;;
37831;SDS011;23671;38.090;-122.570;2022-08-21T02:50:37;4.28;;;2.67;;
37831;SDS011;23671;38.090;-122.570;2022-08-21T02:53:09;10.55;;;3.17;;
37831;SDS011;23671;38.090;-122.570;2022-08-21T03:02:26;4.50;;;2.60;;
37831;SDS011;23671;38.090;-122.570;2022-08-21T03:04:53;5.80;;;2.80;;
37831;SDS011;23671;38.090;-122.570;2022-08-21T03:07:20;4.72;;;2.40;;
37831;SDS011;23671;38.090;-122.570;2022-08-21T03:09:48;4.57;;;2.53;;
37831;SDS011;23671;38.090;-122.570;2022-08-21T03:12:14;3.45;;;2.20;;
37831;SDS011;23671;38.090;-122.570;2022-08-21T03:14:41;4.03;;;2.70;;
37831;SDS011;23671;38.090;-122.570;2022-08-21T03:17:08;3.63;;;2.67;;
37831;SDS011;23671;38.090;-122.570;2022-08-21T03:19:36;3.72;;;2.25;;
37831;SDS011;23671;38.090;-122.570;2022-08-21T03:22:03;4.18;;;2.42;;
37831;SDS011;23671;38.090;-122.570;2022-08-21T03:24:30;3.97;;;2.28;;
37831;SDS011;23671;38.090;-122.570;2022-08-21T03:26:57;4.20;;;2.45;;
37831;SDS011;23671;38.090;-122.570;2022-08-21T03:29:25;4.40;;;2.80;;
37831;SDS011;23671;38.090;-122.570;2022-08-21T03:31:52;3.75;;;2.42;;
37831;SDS011;23671;38.090;-122.570;2022-08-21T03:34:20;3.53;;;2.47;;
37831;SDS011;23671;38.090;-122.570;2022-08-21T03:36:47;4.80;;;2.80;;
37831;SDS011;23671;38.090;-122.570;2022-08-21T03:39:15;4.25;;;2.65;;
37831;SDS011;23671;38.090;-122.570;2022-08-21T03:41:42;4.38;;;2.92;;
37831;SDS011;23671;38.090;-122.570;2022-08-21T03:44:10;3.83;;;2.40;;
37831;SDS011;23671;38.090;-122.570;2022-08-21T03:46:37;4.53;;;2.25;;
37831;SDS011;23671;38.090;-122.570;2022-08-21T03:49:05;4.13;;;2.70;;
37831;SDS011;23671;38.090;-122.570;2022-08-21T03:51:32;2.80;;;2.03;;
37831;SDS011;23671;38.090;-122.570;2022-08-21T03:54:00;4.00;;;2.78;;
37831;SDS011;23671;38.090;-122.570;2022-08-21T03:56:28;3.28;;;2.45;;
37831;SDS011;23671;38.090;-122.570;2022-08-21T03:58:55;4.90;;;2.50;;
37831;SDS011;23671;38.090;-122.570;2022-08-21T04:01:22;3.55;;;2.00;;
37831;SDS011;23671;38.090;-122.570;2022-08-21T04:03:49;3.30;;;2.30;;
37831;SDS011;23671;38.090;-122.570;2022-08-21T04:06:16;4.43;;;2.92;;
37831;SDS011;23671;38.090;-122.570;2022-08-21T04:08:43;3.55;;;2.38;;
37831;SDS011;23671;38.090;-122.570;2022-08-21T04:11:10;4.85;;;2.65;;
37831;SDS011;23671;38.090;-122.570;2022-08-21T04:13:37;4.05;;;2.33;;
37831;SDS011;23671;38.090;-122.570;2022-08-21T04:16:06;3.67;;;2.15;;
37831;SDS011;23671;38.090;-122.570;2022-08-21T04:18:33;5.47;;;2.92;;
37831;SDS011;23671;38.090;-122.570;2022-08-21T04:21:19;3.75;;;2.60;;
37831;SDS011;23671;38.090;-122.570;2022-08-21T04:23:46;4.68;;;2.50;;
37831;SDS011;23671;38.090;-122.570;2022-08-21T04:26:13;3.40;;;2.10;;
37831;SDS011;23671;38.090;-122.570;2022-08-21T04:28:40;3.75;;;2.42;;
37831;SDS011;23671;38.090;-122.570;2022-08-21T04:31:08;4.50;;;2.42;;
37831;SDS011;23671;38.090;-122.570;2022-08-21T04:33:35;5.27;;;2.37;;
37831;SDS011;23671;38.090;-122.570;2022-08-21T04:36:03;2.55;;;2.17;;
37831;SDS011;23671;38.090;-122.570;2022-08-21T04:38:30;5.80;;;2.30;;
37831;SDS011;23671;38.090;-122.570;2022-08-21T04:40:57;4.65;;;2.63;;
37831;SDS011;23671;38.090;-122.570;2022-08-21T04:43:25;3.90;;;2.50;;
37831;SDS011;23671;38.090;-122.570;2022-08-21T04:48:20;2.42;;;2.00;;
37831;SDS011;23671;38.090;-122.570;2022-08-21T04:53:34;3.13;;;2.05;;
37831;SDS011;23671;38.090;-122.570;2022-08-21T04:56:23;3.58;;;2.30;;
37831;SDS011;23671;38.090;-122.570;2022-08-21T04:59:17;4.72;;;2.42;;
37831;SDS011;23671;38.090;-122.570;2022-08-21T05:01:51;4.82;;;2.65;;
37831;SDS011;23671;38.090;-122.570;2022-08-21T05:04:23;3.47;;;2.10;;
37831;SDS011;23671;38.090;-122.570;2022-08-21T05:06:54;4.07;;;2.58;;
37831;SDS011;23671;38.090;-122.570;2022-08-21T05:09:25;3.80;;;2.50;;
37831;SDS011;23671;38.090;-122.570;2022-08-21T05:11:53;3.65;;;2.72;;
37831;SDS011;23671;38.090;-122.570;2022-08-21T05:14:21;4.37;;;2.60;;
37831;SDS011;23671;38.090;-122.570;2022-08-21T05:16:48;4.65;;;2.85;;
37831;SDS011;23671;38.090;-122.570;2022-08-21T05:19:15;4.13;;;2.45;;
37831;SDS011;23671;38.090;-122.570;2022-08-21T05:21:43;4.05;;;2.40;;
37831;SDS011;23671;38.090;-122.570;2022-08-21T05:24:12;3.60;;;2.58;;
37831;SDS011;23671;38.090;-122.570;2022-08-21T05:26:40;4.13;;;2.28;;
37831;SDS011;23671;38.090;-122.570;2022-08-21T05:29:07;4.07;;;2.45;;
37831;SDS011;23671;38.090;-122.570;2022-08-21T05:31:34;3.22;;;2.10;;
37831;SDS011;23671;38.090;-122.570;2022-08-21T05:34:01;5.78;;;2.90;;
37831;SDS011;23671;38.090;-122.570;2022-08-21T05:36:29;3.22;;;2.28;;
37831;SDS011;23671;38.090;-122.570;2022-08-21T05:38:56;5.00;;;2.38;;
37831;SDS011;23671;38.090;-122.570;2022-08-21T05:41:23;4.38;;;2.42;;
37831;SDS011;23671;38.090;-122.570;2022-08-21T05:43:50;4.43;;;2.40;;
37831;SDS011;23671;38.090;-122.570;2022-08-21T05:46:17;4.22;;;2.45;;
37831;SDS011;23671;38.090;-122.570;2022-08-21T05:48:44;3.00;;;2.10;;
37831;SDS011;23671;38.090;-122.570;2022-08-21T05:51:13;4.53;;;2.72;;
37831;SDS011;23671;38.090;-122.570;2022-08-21T05:53:41;3.78;;;2.30;;
37831;SDS011;23671;38.090;-122.570;2022-08-21T05:56:09;3.40;;;2.00;;
37831;SDS011;23671;38.090;-122.570;2022-08-21T05:58:38;5.18;;;2.72;;
37831;SDS011;23671;38.090;-122.570;2022-08-21T06:01:05;5.43;;;2.63;;
37831;SDS011;23671;38.090;-122.570;2022-08-21T06:03:35;2.97;;;2.08;;
37831;SDS011;23671;38.090;-122.570;2022-08-21T06:06:04;3.88;;;2.20;;
37831;SDS011;23671;38.090;-122.570;2022-08-21T06:08:31;4.00;;;2.30;;
37831;SDS011;23671;38.090;-122.570;2022-08-21T06:10:59;5.68;;;2.08;;
37831;SDS011;23671;38.090;-122.570;2022-08-21T06:13:27;3.65;;;2.15;;
37831;SDS011;23671;38.090;-122.570;2022-08-21T06:16:04;3.42;;;2.20;;
37831;SDS011;23671;38.090;-122.570;2022-08-21T06:21:00;3.80;;;2.90;;
37831;SDS011;23671;38.090;-122.570;2022-08-21T06:23:27;4.60;;;2.50;;
37831;SDS011;23671;38.090;-122.570;2022-08-21T06:25:54;4.00;;;2.40;;
37831;SDS011;23671;38.090;-122.570;2022-08-21T06:28:21;4.32;;;2.60;;
37831;SDS011;23671;38.090;-122.570;2022-08-21T06:30:49;4.25;;;2.30;;
37831;SDS011;23671;38.090;-122.570;2022-08-21T06:33:16;4.30;;;2.33;;
37831;SDS011;23671;38.090;-122.570;2022-08-21T06:35:43;4.20;;;2.20;;
37831;SDS011;23671;38.090;-122.570;2022-08-21T06:38:10;3.85;;;2.03;;
37831;SDS011;23671;38.090;-122.570;2022-08-21T06:40:37;4.63;;;2.10;;
37831;SDS011;23671;38.090;-122.570;2022-08-21T06:45:39;5.82;;;2.50;;
37831;SDS011;23671;38.090;-122.570;2022-08-21T06:48:07;2.70;;;2.10;;
37831;SDS011;23671;38.090;-122.570;2022-08-21T06:50:34;4.75;;;2.50;;
37831;SDS011;23671;38.090;-122.570;2022-08-21T06:53:04;5.77;;;2.60;;
37831;SDS011;23671;38.090;-122.570;2022-08-21T06:55:36;4.25;;;2.10;;
37831;SDS011;23671;38.090;-122.570;2022-08-21T06:58:04;2.95;;;1.90;;
37831;SDS011;23671;38.090;-122.570;2022-08-21T07:00:32;5.22;;;2.42;;
37831;SDS011;23671;38.090;-122.570;2022-08-21T07:02:59;4.45;;;2.30;;
37831;SDS011;23671;38.090;-122.570;2022-08-21T07:05:27;6.20;;;2.60;;
37831;SDS011;23671;38.090;-122.570;2022-08-21T07:10:23;4.32;;;2.13;;
37831;SDS011;23671;38.090;-122.570;2022-08-21T07:12:51;4.43;;;2.00;;
37831;SDS011;23671;38.090;-122.570;2022-08-21T07:15:20;4.38;;;2.38;;
37831;SDS011;23671;38.090;-122.570;2022-08-21T07:17:47;5.07;;;2.53;;
37831;SDS011;23671;38.090;-122.570;2022-08-21T07:20:14;5.05;;;2.38;;
37831;SDS011;23671;38.090;-122.570;2022-08-21T07:22:41;3.92;;;2.13;;
37831;SDS011;23671;38.090;-122.570;2022-08-21T07:25:09;4.20;;;2.42;;
37831;SDS011;23671;38.090;-122.570;2022-08-21T07:27:36;3.50;;;2.10;;
37831;SDS011;23671;38.090;-122.570;2022-08-21T07:30:03;4.70;;;2.15;;
37831;SDS011;23671;38.090;-122.570;2022-08-21T07:32:31;3.53;;;2.00;;
37831;SDS011;23671;38.090;-122.570;2022-08-21T07:34:58;4.05;;;2.55;;
37831;SDS011;23671;38.090;-122.570;2022-08-21T07:37:25;5.38;;;2.28;;
37831;SDS011;23671;38.090;-122.570;2022-08-21T07:39:52;4.47;;;2.38;;
37831;SDS011;23671;38.090;-122.570;2022-08-21T07:42:19;2.50;;;2.00;;
37831;SDS011;23671;38.090;-122.570;2022-08-21T07:44:46;3.92;;;1.92;;
37831;SDS011;23671;38.090;-122.570;2022-08-21T07:47:13;4.20;;;2.28;;
37831;SDS011;23671;38.090;-122.570;2022-08-21T07:49:40;3.50;;;2.00;;
37831;SDS011;23671;38.090;-122.570;2022-08-21T07:52:07;4.07;;;2.25;;
37831;SDS011;23671;38.090;-122.570;2022-08-21T07:54:34;4.88;;;2.35;;
37831;SDS011;23671;38.090;-122.570;2022-08-21T07:57:01;4.80;;;1.95;;
37831;SDS011;23671;38.090;-122.570;2022-08-21T07:59:29;3.63;;;1.90;;
37831;SDS011;23671;38.090;-122.570;2022-08-21T08:01:55;3.88;;;1.90;;
37831;SDS011;23671;38.090;-122.570;2022-08-21T08:04:23;3.42;;;2.03;;
37831;SDS011;23671;38.090;-122.570;2022-08-21T08:06:50;5.18;;;2.28;;
37831;SDS011;23671;38.090;-122.570;2022-08-21T08:09:17;4.85;;;2.47;;
37831;SDS011;23671;38.090;-122.570;2022-08-21T08:11:44;6.05;;;2.20;;
37831;SDS011;23671;38.090;-122.570;2022-08-21T08:14:11;4.07;;;1.92;;
37831;SDS011;23671;38.090;-122.570;2022-08-21T08:16:38;3.90;;;2.10;;
37831;SDS011;23671;38.090;-122.570;2022-08-21T08:19:05;3.60;;;2.00;;
37831;SDS011;23671;38.090;-122.570;2022-08-21T08:21:32;3.38;;;2.25;;
37831;SDS011;23671;38.090;-122.570;2022-08-21T08:24:00;4.47;;;2.15;;
37831;SDS011;23671;38.090;-122.570;2022-08-21T08:26:27;4.38;;;2.30;;
37831;SDS011;23671;38.090;-122.570;2022-08-21T08:28:54;3.80;;;2.13;;
37831;SDS011;23671;38.090;-122.570;2022-08-21T08:31:21;4.78;;;2.10;;
37831;SDS011;23671;38.090;-122.570;2022-08-21T08:33:49;3.08;;;2.05;;
37831;SDS011;23671;38.090;-122.570;2022-08-21T08:36:16;4.07;;;1.95;;
37831;SDS011;23671;38.090;-122.570;2022-08-21T08:38:44;4.23;;;1.93;;
37831;SDS011;23671;38.090;-122.570;2022-08-21T08:41:16;3.93;;;2.33;;
37831;SDS011;23671;38.090;-122.570;2022-08-21T08:43:50;2.42;;;1.65;;
37831;SDS011;23671;38.090;-122.570;2022-08-21T08:46:26;4.72;;;2.33;;
37831;SDS011;23671;38.090;-122.570;2022-08-21T08:49:05;4.25;;;1.92;;
37831;SDS011;23671;38.090;-122.570;2022-08-21T08:51:51;4.55;;;2.72;;
37831;SDS011;23671;38.090;-122.570;2022-08-21T08:55:00;4.93;;;1.98;;
37831;SDS011;23671;38.090;-122.570;2022-08-21T08:57:38;6.10;;;2.38;;
37831;SDS011;23671;38.090;-122.570;2022-08-21T09:00:14;4.57;;;2.15;;
37831;SDS011;23671;38.090;-122.570;2022-08-21T09:02:43;4.60;;;2.42;;
37831;SDS011;23671;38.090;-122.570;2022-08-21T09:05:35;4.40;;;2.17;;
37831;SDS011;23671;38.090;-122.570;2022-08-21T09:11:01;3.50;;;2.10;;
37831;SDS011;23671;38.090;-122.570;2022-08-21T09:21:18;5.57;;;2.40;;
37831;SDS011;23671;38.090;-122.570;2022-08-21T09:24:00;2.90;;;2.10;;
37831;SDS011;23671;38.090;-122.570;2022-08-21T09:29:21;3.53;;;2.00;;
37831;SDS011;23671;38.090;-122.570;2022-08-21T09:31:54;3.35;;;2.15;;
37831;SDS011;23671;38.090;-122.570;2022-08-21T09:34:26;4.18;;;2.22;;
37831;SDS011;23671;38.090;-122.570;2022-08-21T09:36:54;3.60;;;1.88;;
37831;SDS011;23671;38.090;-122.570;2022-08-21T09:39:28;3.08;;;1.85;;
37831;SDS011;23671;38.090;-122.570;2022-08-21T09:42:06;5.47;;;2.42;;
37831;SDS011;23671;38.090;-122.570;2022-08-21T09:44:40;3.17;;;1.90;;
37831;SDS011;23671;38.090;-122.570;2022-08-21T09:47:10;3.47;;;1.80;;
37831;SDS011;23671;38.090;-122.570;2022-08-21T09:49:40;3.47;;;1.92;;
37831;SDS011;23671;38.090;-122.570;2022-08-21T09:52:15;4.38;;;2.35;;
37831;SDS011;23671;38.090;-122.570;2022-08-21T09:54:49;3.10;;;2.08;;
37831;SDS011;23671;38.090;-122.570;2022-08-21T09:57:29;4.40;;;2.20;;
37831;SDS011;23671;38.090;-122.570;2022-08-21T10:02:51;3.83;;;1.88;;
37831;SDS011;23671;38.090;-122.570;2022-08-21T10:07:48;4.70;;;2.20;;
37831;SDS011;23671;38.090;-122.570;2022-08-21T10:21:22;4.38;;;2.05;;
37831;SDS011;23671;38.090;-122.570;2022-08-21T10:26:57;3.22;;;1.60;;
37831;SDS011;23671;38.090;-122.570;2022-08-21T10:29:43;4.90;;;2.20;;
37831;SDS011;23671;38.090;-122.570;2022-08-21T10:38:02;3.80;;;1.90;;
37831;SDS011;23671;38.090;-122.570;2022-08-21T10:41:17;3.22;;;1.73;;
37831;SDS011;23671;38.090;-122.570;2022-08-21T10:46:53;5.10;;;2.22;;
37831;SDS011;23671;38.090;-122.570;2022-08-21T11:00:22;5.47;;;1.98;;
37831;SDS011;23671;38.090;-122.570;2022-08-21T11:02:57;4.18;;;2.00;;
37831;SDS011;23671;38.090;-122.570;2022-08-21T11:05:57;3.00;;;1.83;;
37831;SDS011;23671;38.090;-122.570;2022-08-21T11:08:45;4.53;;;2.47;;
37831;SDS011;23671;38.090;-122.570;2022-08-21T11:11:24;4.22;;;1.85;;
37831;SDS011;23671;38.090;-122.570;2022-08-21T11:13:59;4.65;;;2.30;;
37831;SDS011;23671;38.090;-122.570;2022-08-21T11:19:39;3.47;;;2.13;;
37831;SDS011;23671;38.090;-122.570;2022-08-21T11:22:18;5.45;;;2.20;;
37831;SDS011;23671;38.090;-122.570;2022-08-21T11:28:15;3.63;;;2.00;;
37831;SDS011;23671;38.090;-122.570;2022-08-21T11:30:52;5.45;;;2.20;;
37831;SDS011;23671;38.090;-122.570;2022-08-21T11:34:01;4.20;;;1.80;;
37831;SDS011;23671;38.090;-122.570;2022-08-21T11:39:25;5.68;;;2.00;;
37831;SDS011;23671;38.090;-122.570;2022-08-21T11:42:06;3.42;;;1.67;;
37831;SDS011;23671;38.090;-122.570;2022-08-21T11:45:08;3.47;;;1.88;;
37831;SDS011;23671;38.090;-122.570;2022-08-21T11:50:40;3.53;;;2.10;;
37831;SDS011;23671;38.090;-122.570;2022-08-21T11:55:50;3.25;;;2.00;;
37831;SDS011;23671;38.090;-122.570;2022-08-21T11:58:46;3.97;;;2.35;;
37831;SDS011;23671;38.090;-122.570;2022-08-21T12:01:19;3.42;;;1.88;;
37831;SDS011;23671;38.090;-122.570;2022-08-21T12:03:58;4.82;;;2.13;;
37831;SDS011;23671;38.090;-122.570;2022-08-21T12:06:36;4.88;;;1.95;;
37831;SDS011;23671;38.090;-122.570;2022-08-21T12:09:08;3.63;;;2.00;;
37831;SDS011;23671;38.090;-122.570;2022-08-21T12:12:10;3.65;;;1.90;;
37831;SDS011;23671;38.090;-122.570;2022-08-21T12:14:43;3.35;;;1.90;;
37831;SDS011;23671;38.090;-122.570;2022-08-21T12:17:20;4.43;;;2.10;;
37831;SDS011;23671;38.090;-122.570;2022-08-21T12:19:58;4.28;;;2.00;;
37831;SDS011;23671;38.090;-122.570;2022-08-21T12:25:09;3.88;;;1.60;;
37831;SDS011;23671;38.090;-122.570;2022-08-21T12:27:46;3.03;;;1.85;;
37831;SDS011;23671;38.090;-122.570;2022-08-21T12:30:20;5.22;;;2.50;;
37831;SDS011;23671;38.090;-122.570;2022-08-21T12:33:05;3.95;;;1.92;;
37831;SDS011;23671;38.090;-122.570;2022-08-21T12:35:53;2.75;;;1.55;;
37831;SDS011;23671;38.090;-122.570;2022-08-21T12:41:22;3.92;;;1.40;;
37831;SDS011;23671;38.090;-122.570;2022-08-21T12:46:32;4.60;;;2.08;;
37831;SDS011;23671;38.090;-122.570;2022-08-21T12:49:14;3.10;;;1.90;;
37831;SDS011;23671;38.090;-122.570;2022-08-21T12:52:00;3.30;;;1.83;;
37831;SDS011;23671;38.090;-122.570;2022-08-21T12:54:38;3.88;;;1.88;;
37831;SDS011;23671;38.090;-122.570;2022-08-21T12:57:08;4.00;;;2.00;;
37831;SDS011;23671;38.090;-122.570;2022-08-21T12:59:44;3.40;;;1.83;;
37831;SDS011;23671;38.090;-122.570;2022-08-21T13:02:15;3.03;;;1.92;;
37831;SDS011;23671;38.090;-122.570;2022-08-21T13:04:46;4.10;;;1.95;;
37831;SDS011;23671;38.090;-122.570;2022-08-21T13:07:16;4.03;;;1.67;;
37831;SDS011;23671;38.090;-122.570;2022-08-21T13:09:52;2.80;;;1.75;;
37831;SDS011;23671;38.090;-122.570;2022-08-21T13:12:24;2.10;;;1.50;;
37831;SDS011;23671;38.090;-122.570;2022-08-21T13:14:55;3.28;;;1.83;;
37831;SDS011;23671;38.090;-122.570;2022-08-21T13:17:25;4.55;;;2.05;;
37831;SDS011;23671;38.090;-122.570;2022-08-21T13:19:59;3.63;;;1.92;;
37831;SDS011;23671;38.090;-122.570;2022-08-21T13:22:39;4.82;;;2.13;;
37831;SDS011;23671;38.090;-122.570;2022-08-21T13:25:13;3.83;;;1.90;;
37831;SDS011;23671;38.090;-122.570;2022-08-21T13:27:44;3.85;;;1.75;;
37831;SDS011;23671;38.090;-122.570;2022-08-21T13:33:00;3.40;;;1.98;;
37831;SDS011;23671;38.090;-122.570;2022-08-21T13:35:35;3.90;;;1.77;;
37831;SDS011;23671;38.090;-122.570;2022-08-21T13:38:15;5.13;;;1.83;;
37831;SDS011;23671;38.090;-122.570;2022-08-21T13:40:57;3.80;;;1.67;;
37831;SDS011;23671;38.090;-122.570;2022-08-21T13:43:44;4.13;;;2.08;;
37831;SDS011;23671;38.090;-122.570;2022-08-21T13:46:14;3.60;;;1.60;;
37831;SDS011;23671;38.090;-122.570;2022-08-21T13:48:43;3.50;;;2.13;;
37831;SDS011;23671;38.090;-122.570;2022-08-21T13:51:10;5.68;;;2.20;;
37831;SDS011;23671;38.090;-122.570;2022-08-21T13:56:20;3.83;;;1.75;;
37831;SDS011;23671;38.090;-122.570;2022-08-21T13:58:48;5.07;;;2.35;;
37831;SDS011;23671;38.090;-122.570;2022-08-21T14:04:22;4.55;;;2.13;;
37831;SDS011;23671;38.090;-122.570;2022-08-21T14:06:57;3.63;;;1.83;;
37831;SDS011;23671;38.090;-122.570;2022-08-21T14:09:33;4.93;;;2.45;;
37831;SDS011;23671;38.090;-122.570;2022-08-21T14:12:17;3.17;;;1.85;;
37831;SDS011;23671;38.090;-122.570;2022-08-21T14:14:51;3.22;;;2.03;;
37831;SDS011;23671;38.090;-122.570;2022-08-21T14:17:32;4.53;;;1.77;;
37831;SDS011;23671;38.090;-122.570;2022-08-21T14:20:10;6.03;;;2.03;;
37831;SDS011;23671;38.090;-122.570;2022-08-21T14:22:50;3.50;;;1.90;;
37831;SDS011;23671;38.090;-122.570;2022-08-21T14:27:51;5.07;;;1.77;;
37831;SDS011;23671;38.090;-122.570;2022-08-21T14:30:39;2.95;;;1.73;;
37831;SDS011;23671;38.090;-122.570;2022-08-21T14:33:11;2.30;;;1.70;;
37831;SDS011;23671;38.090;-122.570;2022-08-21T14:35:44;3.33;;;1.73;;
37831;SDS011;23671;38.090;-122.570;2022-08-21T14:38:19;3.40;;;2.22;;
37831;SDS011;23671;38.090;-122.570;2022-08-21T14:40:52;4.37;;;2.17;;
37831;SDS011;23671;38.090;-122.570;2022-08-21T14:43:26;3.15;;;1.63;;
37831;SDS011;23671;38.090;-122.570;2022-08-21T14:45:53;3.28;;;1.65;;
37831;SDS011;23671;38.090;-122.570;2022-08-21T14:48:21;4.68;;;2.05;;
37831;SDS011;23671;38.090;-122.570;2022-08-21T14:50:48;2.17;;;1.65;;
37831;SDS011;23671;38.090;-122.570;2022-08-21T14:53:16;3.45;;;1.70;;
37831;SDS011;23671;38.090;-122.570;2022-08-21T14:55:43;5.93;;;2.40;;
37831;SDS011;23671;38.090;-122.570;2022-08-21T14:58:28;6.53;;;1.92;;
37831;SDS011;23671;38.090;-122.570;2022-08-21T15:00:56;3.65;;;1.60;;
37831;SDS011;23671;38.090;-122.570;2022-08-21T15:03:24;4.15;;;1.70;;
37831;SDS011;23671;38.090;-122.570;2022-08-21T15:05:51;3.85;;;2.00;;
37831;SDS011;23671;38.090;-122.570;2022-08-21T15:08:18;3.63;;;1.58;;
37831;SDS011;23671;38.090;-122.570;2022-08-21T15:10:45;3.00;;;1.92;;
37831;SDS011;23671;38.090;-122.570;2022-08-21T15:13:13;4.00;;;1.98;;
37831;SDS011;23671;38.090;-122.570;2022-08-21T15:15:41;2.83;;;1.58;;
37831;SDS011;23671;38.090;-122.570;2022-08-21T15:18:11;2.45;;;1.60;;
37831;SDS011;23671;38.090;-122.570;2022-08-21T15:20:38;2.97;;;1.58;;
37831;SDS011;23671;38.090;-122.570;2022-08-21T15:23:05;3.38;;;1.83;;
37831;SDS011;23671;38.090;-122.570;2022-08-21T15:25:34;4.50;;;1.70;;
37831;SDS011;23671;38.090;-122.570;2022-08-21T15:28:01;2.60;;;1.70;;
37831;SDS011;23671;38.090;-122.570;2022-08-21T15:30:29;3.80;;;1.70;;
37831;SDS011;23671;38.090;-122.570;2022-08-21T15:32:56;4.07;;;1.70;;
37831;SDS011;23671;38.090;-122.570;2022-08-21T15:35:24;4.03;;;1.98;;
37831;SDS011;23671;38.090;-122.570;2022-08-21T15:37:51;3.40;;;1.58;;
37831;SDS011;23671;38.090;-122.570;2022-08-21T15:40:18;3.90;;;1.70;;
37831;SDS011;23671;38.090;-122.570;2022-08-21T15:42:45;2.88;;;1.70;;
37831;SDS011;23671;38.090;-122.570;2022-08-21T15:45:12;3.30;;;1.63;;
37831;SDS011;23671;38.090;-122.570;2022-08-21T15:47:42;4.07;;;2.03;;
37831;SDS011;23671;38.090;-122.570;2022-08-21T15:50:11;4.57;;;2.22;;
37831;SDS011;23671;38.090;-122.570;2022-08-21T15:52:39;2.92;;;1.60;;
37831;SDS011;23671;38.090;-122.570;2022-08-21T15:55:06;3.08;;;1.67;;
37831;SDS011;23671;38.090;-122.570;2022-08-21T15:57:33;3.17;;;1.73;;
37831;SDS011;23671;38.090;-122.570;2022-08-21T16:00:07;2.67;;;1.52;;
37831;SDS011;23671;38.090;-122.570;2022-08-21T16:02:43;3.67;;;1.70;;
37831;SDS011;23671;38.090;-122.570;2022-08-21T16:05:13;2.90;;;1.67;;
37831;SDS011;23671;38.090;-122.570;2022-08-21T16:07:44;3.45;;;2.22;;
37831;SDS011;23671;38.090;-122.570;2022-08-21T16:10:13;4.93;;;1.50;;
37831;SDS011;23671;38.090;-122.570;2022-08-21T16:15:21;3.47;;;1.45;;
37831;SDS011;23671;38.090;-122.570;2022-08-21T16:17:49;2.47;;;1.55;;
37831;SDS011;23671;38.090;-122.570;2022-08-21T16:20:18;2.67;;;1.60;;
37831;SDS011;23671;38.090;-122.570;2022-08-21T16:22:49;2.53;;;1.63;;
37831;SDS011;23671;38.090;-122.570;2022-08-21T16:25:17;3.47;;;1.85;;
37831;SDS011;23671;38.090;-122.570;2022-08-21T16:27:45;3.63;;;1.65;;